Time;durP1;ratioP1;P1;durP2;ratioP2;P2;SDS_P1;SDS_P2;PMS_P1;PMS_P2;Temp;Humidity;BMP_temperature;BMP_pressure;BME280_temperature;BME280_humidity;BME280_pressure;Samples;Min_cycle;Max_cycle;Signal;HPM_P1;HPM_P2
2023/12/03 00:01:43;;;;;;;99.30;31.90;;;;;;;2.35;87.84;99823.64;678528;1273;138605;-81
2023/12/03 00:16:46;;;;;;;90.80;35.30;;;;;;;2.17;87.12;99826.95;678807;1272;139057;-80
2023/12/03 00:31:50;;;;;;;86.60;31.60;;;;;;;1.82;88.59;99826.92;678872;1272;138851;-81
2023/12/03 00:46:53;;;;;;;105.10;38.20;;;;;;;1.74;89.41;99835.31;678871;1272;138848;-81
2023/12/03 01:01:57;;;;;;;135.60;44.00;;;;;;;1.83;89.34;99855.20;678340;1272;139077;-81
2023/12/03 01:17:00;;;;;;;112.10;35.20;;;;;;;1.87;89.35;99859.93;678343;1272;139887;-81
2023/12/03 01:32:04;;;;;;;120.70;41.70;;;;;;;1.80;89.30;99858.60;678803;1266;140153;-81
2023/12/03 01:47:07;;;;;;;94.20;31.40;;;;;;;1.76;89.36;99858.00;679517;1269;138977;-81
2023/12/03 02:02:11;;;;;;;105.20;38.70;;;;;;;1.68;89.94;99856.59;679612;1282;141812;-80
2023/12/03 02:17:14;;;;;;;83.20;29.70;;;;;;;1.71;89.73;99869.64;679666;1267;139087;-81
2023/12/03 02:32:18;;;;;;;63.80;22.90;;;;;;;1.61;90.14;99880.73;679494;1267;138872;-80
2023/12/03 02:47:23;;;;;;;84.10;25.10;;;;;;;1.64;90.40;99888.52;679639;1273;138986;-81
2023/12/03 03:02:26;;;;;;;83.20;26.60;;;;;;;1.69;89.84;99905.78;679722;1270;139086;-81
2023/12/03 03:17:30;;;;;;;109.30;34.00;;;;;;;1.70;89.92;99914.36;679821;1270;140071;-81
2023/12/03 03:32:33;;;;;;;81.20;28.20;;;;;;;1.69;89.89;99925.98;679148;1270;139469;-81
2023/12/03 03:47:37;;;;;;;91.80;27.80;;;;;;;1.77;90.15;99937.44;679717;1273;139315;-81
2023/12/03 04:02:40;;;;;;;85.60;29.70;;;;;;;1.85;90.09;99943.52;679672;1267;138882;-81
2023/12/03 04:17:44;;;;;;;101.10;29.70;;;;;;;1.92;89.66;99960.88;679765;1270;139724;-81
2023/12/03 04:32:48;;;;;;;137.70;39.50;;;;;;;1.93;89.72;99972.04;679515;1270;138675;-81
2023/12/03 04:47:52;;;;;;;111.80;35.20;;;;;;;1.94;89.55;99979.60;679658;1271;139324;-81
2023/12/03 05:02:55;;;;;;;89.30;30.80;;;;;;;1.97;89.31;99991.13;679637;1267;139981;-81
2023/12/03 05:17:59;;;;;;;100.50;29.80;;;;;;;1.97;89.80;99999.94;679643;1270;138359;-81
2023/12/03 05:33:02;;;;;;;91.60;29.20;;;;;;;2.00;89.95;100014.61;679439;1267;139687;-81
2023/12/03 05:48:06;;;;;;;104.90;29.30;;;;;;;2.01;90.04;100028.84;679734;1272;139143;-81
2023/12/03 06:03:10;;;;;;;92.00;23.70;;;;;;;2.08;90.45;100046.56;679566;1270;139845;-81
2023/12/03 06:18:15;;;;;;;167.60;48.60;;;;;;;2.20;90.82;100069.20;679433;1272;139600;-81
2023/12/03 06:33:19;;;;;;;92.60;26.80;;;;;;;2.28;91.34;100091.35;679625;1267;139393;-81
2023/12/03 06:48:26;;;;;;;77.60;23.00;;;;;;;2.37;91.77;100103.81;679616;1266;138870;-80
2023/12/03 07:03:29;;;;;;;115.00;33.10;;;;;;;2.63;91.19;100111.99;679578;1272;138488;-80
2023/12/03 07:18:34;;;;;;;319.50;102.20;;;;;;;2.86;91.32;100126.20;680137;1270;139613;-80
2023/12/03 07:33:37;;;;;;;145.40;54.30;;;;;;;2.94;91.48;100145.62;682759;1262;139873;-81
2023/12/03 07:48:40;;;;;;;112.70;37.50;;;;;;;3.08;91.99;100155.33;682904;1262;139674;-80
2023/12/03 08:03:44;;;;;;;109.00;38.30;;;;;;;3.30;92.02;100172.36;682942;1259;138660;-81
2023/12/03 08:18:47;;;;;;;152.40;66.20;;;;;;;3.41;91.67;100189.70;682976;1262;138905;-82
2023/12/03 08:33:52;;;;;;;125.20;56.90;;;;;;;3.53;91.17;100201.81;683125;1262;138319;-81
2023/12/03 08:48:56;;;;;;;86.60;33.80;;;;;;;3.68;90.41;100220.42;682816;1259;139473;-81
2023/12/03 09:04:00;;;;;;;70.00;32.60;;;;;;;3.60;88.76;100245.64;682880;1261;139120;-80
2023/12/03 09:19:05;;;;;;;58.50;30.00;;;;;;;3.66;87.88;100256.20;682985;1259;138382;-81
2023/12/03 09:34:10;;;;;;;25.00;14.90;;;;;;;4.03;86.66;100258.12;682993;1260;138797;-82
2023/12/03 09:49:18;;;;;;;33.60;16.40;;;;;;;4.30;85.82;100272.73;682830;1260;140064;-82
2023/12/03 10:04:22;;;;;;;25.70;11.60;;;;;;;4.90;85.08;100281.23;682994;1259;138487;-82
2023/12/03 10:19:27;;;;;;;98.40;46.50;;;;;;;7.75;83.98;100289.16;682679;1262;142732;-81
2023/12/03 10:34:32;;;;;;;19.90;11.10;;;;;;;9.20;77.53;100296.44;682969;1260;138894;-82
2023/12/03 10:49:38;;;;;;;10.90;6.50;;;;;;;8.27;72.37;100291.53;682493;1262;138267;-83
2023/12/03 11:04:58;;;;;;;14.20;7.10;;;;;;;7.97;69.86;100295.61;682871;1262;137486;-83
2023/12/03 11:20:16;;;;;;;18.60;7.80;;;;;;;7.99;68.08;100292.00;682844;1259;138288;-83
2023/12/03 11:35:24;;;;;;;19.60;10.80;;;;;;;7.53;66.85;100292.63;682862;1259;137390;-83
2023/12/03 11:50:38;;;;;;;14.90;8.10;;;;;;;6.48;67.40;100301.48;682100;1262;137805;-83
2023/12/03 12:05:47;;;;;;;30.30;12.80;;;;;;;5.06;68.20;100305.41;682313;1260;138180;-82
2023/12/03 12:20:51;;;;;;;13.90;7.00;;;;;;;4.50;69.51;100310.80;682380;1262;138691;-82
2023/12/03 12:36:01;;;;;;;48.90;18.50;;;;;;;3.67;70.22;100321.52;682474;1262;141098;-83
2023/12/03 12:51:06;;;;;;;208.00;69.40;;;;;;;3.21;72.05;100334.73;682335;1263;138282;-82
2023/12/03 13:06:10;;;;;;;37.20;15.60;;;;;;;2.93;73.19;100340.05;682654;1262;138569;-81
2023/12/03 13:21:14;;;;;;;112.10;49.20;;;;;;;2.75;74.50;100335.98;683183;1260;22275;-80
2023/12/03 13:36:41;;;;;;;40.70;22.10;;;;;;;2.49;75.65;100342.23;683106;1261;22113;-80
2023/12/03 13:51:48;;;;;;;45.30;20.20;;;;;;;2.25;77.56;100360.61;683177;1260;22120;-80
2023/12/03 14:06:53;;;;;;;24.00;11.40;;;;;;;2.08;78.33;100368.73;683198;1262;22360;-80
2023/12/03 14:21:58;;;;;;;28.70;14.00;;;;;;;1.94;78.33;100379.77;683184;1262;22272;-80
2023/12/03 14:37:02;;;;;;;66.00;29.50;;;;;;;1.64;78.63;100391.77;683116;1260;22152;-80
2023/12/03 14:52:06;;;;;;;35.60;16.30;;;;;;;1.52;78.66;100407.31;683293;1259;26980;-80
2023/12/03 15:07:11;;;;;;;60.60;24.70;;;;;;;1.45;79.46;100418.35;683276;1263;22896;-80
2023/12/03 15:22:17;;;;;;;48.90;19.80;;;;;;;1.29;80.79;100423.40;683247;1263;22455;-80
2023/12/03 15:37:22;;;;;;;36.90;16.70;;;;;;;1.41;80.60;100432.70;683286;1262;22701;-80
2023/12/03 15:52:26;;;;;;;50.90;21.60;;;;;;;1.41;81.07;100428.89;683072;1263;22131;-80
2023/12/03 16:07:32;;;;;;;29.20;14.20;;;;;;;1.45;81.42;100436.11;683319;1263;22216;-80
2023/12/03 16:22:40;;;;;;;34.90;15.70;;;;;;;1.44;82.43;100437.17;683284;1263;22230;-83
2023/12/03 16:37:44;;;;;;;37.90;16.20;;;;;;;1.56;82.25;100444.02;683106;1263;22129;-79
2023/12/03 16:52:53;;;;;;;159.60;56.20;;;;;;;1.57;82.71;100456.05;683157;1268;22989;-80
2023/12/03 17:07:57;;;;;;;38.50;18.40;;;;;;;1.62;82.30;100457.73;683394;1263;22421;-80
2023/12/03 17:23:00;;;;;;;52.60;22.10;;;;;;;1.56;83.09;100469.56;683144;1262;22792;-82
2023/12/03 17:38:04;;;;;;;56.80;23.00;;;;;;;1.62;83.62;100471.16;682860;1272;138247;-82
2023/12/03 17:53:18;;;;;;;40.40;18.40;;;;;;;1.74;83.01;100485.77;682970;1273;22408;-82
2023/12/03 18:08:22;;;;;;;42.60;19.40;;;;;;;1.61;84.46;100489.32;682811;1260;138367;-82
2023/12/03 18:23:26;;;;;;;37.70;17.40;;;;;;;1.63;84.91;100491.98;682557;1264;138853;-81
2023/12/03 18:38:31;;;;;;;101.30;38.20;;;;;;;1.60;85.39;100505.55;682687;1258;139816;-80
2023/12/03 18:53:36;;;;;;;163.00;60.50;;;;;;;1.79;85.24;100515.17;682691;1261;139255;-81
2023/12/03 19:08:40;;;;;;;66.90;28.30;;;;;;;1.74;85.92;100515.79;682645;1262;139641;-81
2023/12/03 19:23:43;;;;;;;76.30;32.50;;;;;;;1.85;86.15;100524.26;682361;1260;138966;-82
2023/12/03 19:38:47;;;;;;;61.40;24.50;;;;;;;1.85;86.26;100535.95;682588;1260;138850;-81
2023/12/03 19:53:50;;;;;;;58.80;24.90;;;;;;;1.90;87.32;100544.71;682480;1264;138701;-82
2023/12/03 20:08:54;;;;;;;53.10;21.50;;;;;;;1.83;87.81;100560.55;682653;1260;138762;-82
2023/12/03 20:23:58;;;;;;;69.20;25.50;;;;;;;2.11;87.42;100565.61;682507;1261;138991;-82
2023/12/03 20:39:04;;;;;;;43.40;19.10;;;;;;;2.39;85.36;100562.54;682482;1262;138460;-82
2023/12/03 20:54:08;;;;;;;55.10;19.60;;;;;;;2.35;85.00;100567.89;682487;1261;139002;-82
2023/12/03 21:09:13;;;;;;;30.30;13.40;;;;;;;2.39;85.09;100576.17;682835;1259;138349;-83
2023/12/03 21:24:16;;;;;;;43.10;19.40;;;;;;;2.43;84.61;100584.79;682603;1262;139369;-81
2023/12/03 21:39:21;;;;;;;27.90;15.60;;;;;;;2.39;84.37;100596.73;682824;1267;138688;-81
2023/12/03 21:54:24;;;;;;;60.70;22.10;;;;;;;2.32;84.26;100598.96;682733;1262;139093;-80
2023/12/03 22:09:29;;;;;;;37.50;15.10;;;;;;;1.64;85.72;100603.85;682638;1264;140496;-82
2023/12/03 22:24:33;;;;;;;95.80;29.90;;;;;;;1.22;86.00;100619.15;682322;1260;167365;-81
2023/12/03 22:39:36;;;;;;;63.40;20.00;;;;;;;0.98;85.91;100624.65;682505;1263;138516;-82
2023/12/03 22:54:39;;;;;;;100.40;27.30;;;;;;;0.84;85.21;100632.66;682499;1259;138488;-81
2023/12/03 23:09:43;;;;;;;42.30;14.10;;;;;;;0.68;85.97;100643.11;682923;1262;139402;-81
2023/12/03 23:24:46;;;;;;;77.30;23.40;;;;;;;0.77;86.37;100647.77;683002;1262;139602;-82
2023/12/03 23:39:50;;;;;;;71.60;21.70;;;;;;;1.04;87.37;100643.33;682943;1262;139662;-81
